Time;durP1;ratioP1;P1;durP2;ratioP2;P2;SDS_P1;SDS_P2;PMS_P1;PMS_P2;Temp;Humidity;BMP_temperature;BMP_pressure;BME280_temperature;BME280_humidity;BME280_pressure;Samples;Min_cycle;Max_cycle;Signal;HPM_P1;HPM_P2
2023/08/29 00:00:42;;;;;;;0.20;0.20;;;;;;;23.66;100.00;100200.59;2092671;28;20187;-62
2023/08/29 00:01:44;;;;;;;0.47;0.20;;;;;;;23.73;100.00;100193.53;2090646;28;20702;-62
2023/08/29 00:02:45;;;;;;;0.53;0.40;;;;;;;23.74;100.00;100200.75;2092084;28;20649;-62
2023/08/29 00:03:45;;;;;;;1.17;0.73;;;;;;;23.71;100.00;100194.09;2092463;28;20167;-62
2023/08/29 00:04:46;;;;;;;0.47;0.37;;;;;;;23.63;100.00;100181.84;2092074;28;20700;-62
2023/08/29 00:05:46;;;;;;;0.47;0.43;;;;;;;23.67;100.00;100184.34;2092168;28;20616;-62
2023/08/29 00:06:47;;;;;;;4.00;1.80;;;;;;;23.60;100.00;100194.19;2092346;28;20572;-62
2023/08/29 00:07:47;;;;;;;0.53;0.30;;;;;;;23.61;100.00;100200.63;2090162;28;20181;-62
2023/08/29 00:08:48;;;;;;;0.97;0.53;;;;;;;23.64;100.00;100191.09;2092725;28;20554;-62
2023/08/29 00:09:48;;;;;;;1.37;0.77;;;;;;;23.66;100.00;100196.97;2091692;28;20204;-62
2023/08/29 00:10:55;;;;;;;0.43;0.43;;;;;;;23.68;100.00;100195.16;2090013;28;20172;-62
2023/08/29 00:11:56;;;;;;;0.30;0.30;;;;;;;23.70;100.00;100195.38;2090221;28;20207;-62
2023/08/29 00:12:56;;;;;;;0.50;0.33;;;;;;;23.69;100.00;100196.66;2094408;28;20183;-62
2023/08/29 00:13:56;;;;;;;0.20;0.20;;;;;;;23.70;100.00;100195.38;2092979;28;20184;-62
2023/08/29 00:14:57;;;;;;;0.60;0.50;;;;;;;23.57;100.00;100172.66;2090917;28;20220;-62
2023/08/29 00:15:58;;;;;;;0.60;0.40;;;;;;;23.79;100.00;100206.31;2092890;28;20283;-62
2023/08/29 00:16:58;;;;;;;0.50;0.50;;;;;;;23.79;100.00;100194.25;2090904;28;20195;-62
2023/08/29 00:18:00;;;;;;;0.73;0.30;;;;;;;23.78;100.00;100199.16;2090293;28;20639;-62
2023/08/29 00:19:00;;;;;;;0.40;0.40;;;;;;;23.73;100.00;100197.16;2091816;28;20213;-62
2023/08/29 00:20:01;;;;;;;0.30;0.30;;;;;;;23.71;100.00;100198.97;2091385;28;20225;-62
2023/08/29 00:21:01;;;;;;;3.80;0.40;;;;;;;23.71;100.00;100188.44;2092089;28;20171;-62
2023/08/29 00:22:02;;;;;;;0.40;0.30;;;;;;;23.65;100.00;100178.47;2091477;28;20673;-62
2023/08/29 00:23:02;;;;;;;1.20;0.50;;;;;;;23.62;100.00;100185.97;2090414;28;20183;-62
2023/08/29 00:24:03;;;;;;;0.30;0.30;;;;;;;23.50;100.00;100170.41;2093818;28;20673;-62
2023/08/29 00:25:03;;;;;;;0.50;0.37;;;;;;;23.60;100.00;100188.53;2091967;28;20230;-62
2023/08/29 00:26:04;;;;;;;0.20;0.20;;;;;;;23.56;100.00;100185.28;2090556;28;20241;-62
2023/08/29 00:27:04;;;;;;;0.20;0.20;;;;;;;23.55;100.00;100195.03;2090981;28;20271;-62
2023/08/29 00:28:06;;;;;;;0.20;0.20;;;;;;;23.54;100.00;100196.34;2090348;28;20654;-62
2023/08/29 00:29:06;;;;;;;0.63;0.30;;;;;;;23.55;100.00;100191.47;2091070;28;20262;-62
2023/08/29 00:30:07;;;;;;;1.23;0.57;;;;;;;23.54;100.00;100195.59;2092891;28;20259;-62
2023/08/29 00:31:08;;;;;;;0.40;0.30;;;;;;;23.14;100.00;100143.53;2091753;28;20180;-62
2023/08/29 00:32:10;;;;;;;0.30;0.30;;;;;;;23.47;100.00;100202.59;2091821;28;20645;-62
2023/08/29 00:33:10;;;;;;;0.20;0.20;;;;;;;23.47;100.00;100202.59;2093428;28;20403;-62
2023/08/29 00:34:11;;;;;;;0.33;0.23;;;;;;;23.42;100.00;100206.25;2094385;28;20215;-62
2023/08/29 00:35:11;;;;;;;0.80;0.40;;;;;;;23.39;100.00;100201.66;2091469;28;20184;-62
2023/08/29 00:36:11;;;;;;;0.30;0.30;;;;;;;23.37;100.00;100200.66;2091091;28;20263;-62
2023/08/29 00:37:12;;;;;;;0.67;0.37;;;;;;;23.36;100.00;100197.06;2089133;28;20207;-62
2023/08/29 00:38:12;;;;;;;0.40;0.20;;;;;;;23.06;100.00;100148.25;2091121;28;20260;-62
2023/08/29 00:39:13;;;;;;;0.37;0.37;;;;;;;23.26;100.00;100183.81;2091563;28;20173;-62
2023/08/29 00:40:13;;;;;;;0.87;0.60;;;;;;;23.33;100.00;100200.19;2092381;28;20180;-62
2023/08/29 00:41:13;;;;;;;1.03;0.40;;;;;;;23.32;100.00;100198.63;2090925;28;20205;-64
2023/08/29 00:42:14;;;;;;;0.30;0.30;;;;;;;23.23;100.00;100210.31;2092045;28;20194;-64
2023/08/29 00:43:20;;;;;;;0.37;0.30;;;;;;;23.25;100.00;100210.53;2089714;28;20219;-64
2023/08/29 00:44:21;;;;;;;1.00;0.50;;;;;;;23.31;100.00;100211.25;2091795;28;20603;-64
2023/08/29 00:45:22;;;;;;;0.43;0.30;;;;;;;22.88;100.00;100143.28;2090974;28;20195;-62
2023/08/29 00:46:23;;;;;;;0.30;0.30;;;;;;;23.30;100.00;100215.38;2090451;28;20191;-62
2023/08/29 00:47:24;;;;;;;0.57;0.50;;;;;;;23.28;100.00;100212.31;2089816;28;20196;-62
2023/08/29 00:48:25;;;;;;;0.70;0.40;;;;;;;23.25;100.00;100210.53;2091165;28;20180;-62
2023/08/29 00:49:27;;;;;;;0.43;0.40;;;;;;;23.21;100.00;100208.00;2093082;28;20249;-62
2023/08/29 00:50:30;;;;;;;0.23;0.23;;;;;;;23.11;100.00;100206.81;2091369;28;20658;-62
2023/08/29 00:51:30;;;;;;;0.30;0.20;;;;;;;23.08;100.00;100205.00;2092443;28;20461;-62
2023/08/29 00:52:31;;;;;;;0.27;0.27;;;;;;;22.60;100.00;100131.50;2089741;28;20187;-62
2023/08/29 00:53:31;;;;;;;0.60;0.60;;;;;;;23.04;100.00;100201.75;2093387;28;20189;-62
2023/08/29 00:54:32;;;;;;;1.07;0.93;;;;;;;22.97;100.00;100198.72;2090583;28;20191;-62
2023/08/29 00:55:34;;;;;;;0.37;0.30;;;;;;;23.04;100.00;100206.59;2093733;28;20188;-62
2023/08/29 00:56:35;;;;;;;0.10;0.10;;;;;;;23.00;100.00;100203.31;2089929;28;20691;-62
2023/08/29 00:57:36;;;;;;;0.40;0.30;;;;;;;22.99;100.00;100211.03;2089657;28;21393;-62
2023/08/29 00:58:36;;;;;;;1.50;1.40;;;;;;;23.06;100.00;100212.50;2092744;28;20885;-62
2023/08/29 00:59:37;;;;;;;1.17;0.70;;;;;;;23.09;100.00;100209.38;2088695;28;20192;-62
2023/08/29 01:00:38;;;;;;;0.67;0.53;;;;;;;23.14;100.00;100213.44;2093133;28;20498;-62
2023/08/29 01:01:39;;;;;;;3.03;1.27;;;;;;;;;;2093769;28;20173;-62
2023/08/29 01:02:39;;;;;;;0.50;0.50;;;;;;;23.28;100.00;100207.41;2089890;28;20183;-62
2023/08/29 01:03:40;;;;;;;0.40;0.40;;;;;;;23.32;100.00;100205.06;2092367;28;20214;-62
2023/08/29 01:04:41;;;;;;;0.83;0.63;;;;;;;23.37;100.00;100206.31;2090581;28;20616;-62
2023/08/29 01:05:41;;;;;;;0.40;0.40;;;;;;;23.42;100.00;100203.44;2091516;28;20212;-62
2023/08/29 01:06:42;;;;;;;0.73;0.40;;;;;;;23.46;100.00;100198.25;2090912;28;20191;-62
2023/08/29 01:07:42;;;;;;;0.60;0.43;;;;;;;23.45;100.00;100185.41;2089912;28;20195;-62
2023/08/29 01:08:43;;;;;;;0.40;0.40;;;;;;;23.55;100.00;100197.84;2093698;28;20261;-62
2023/08/29 01:09:44;;;;;;;0.40;0.30;;;;;;;23.57;100.00;100192.44;2094016;28;20218;-62
2023/08/29 01:11:05;;;;;;;1.70;0.60;;;;;;;23.63;100.00;100198.81;2091610;28;20263;-62
2023/08/29 01:12:20;;;;;;;0.30;0.30;;;;;;;22.93;100.00;100090.88;2090714;28;20175;-62
2023/08/29 01:15:05;;;;;;;0.53;0.43;;;;;;;23.77;100.00;100194.00;2092614;28;20228;-62
2023/08/29 01:16:08;;;;;;;0.50;0.20;;;;;;;23.81;100.00;100191.66;2094004;28;20223;-62
2023/08/29 01:17:18;;;;;;;1.40;0.33;;;;;;;23.83;100.00;100194.69;2095491;28;20580;-62
2023/08/29 01:18:21;;;;;;;0.33;0.30;;;;;;;23.05;100.00;100072.50;2093970;28;21085;-62
2023/08/29 01:19:25;;;;;;;0.13;0.10;;;;;;;23.88;100.00;100191.03;2093024;28;20184;-62
2023/08/29 01:20:29;;;;;;;0.80;0.33;;;;;;;23.91;100.00;100198.50;2095216;28;20184;-62
2023/08/29 01:21:30;;;;;;;0.83;0.40;;;;;;;23.90;100.00;100197.72;2091361;28;20193;-62
2023/08/29 01:22:51;;;;;;;0.87;0.40;;;;;;;23.91;100.00;100207.00;2093591;28;20187;-62
2023/08/29 01:24:01;;;;;;;1.00;0.50;;;;;;;23.93;100.00;100210.03;2096471;28;20176;-62
2023/08/29 01:25:23;;;;;;;0.47;0.43;;;;;;;23.93;100.00;100216.47;2092728;28;20771;-62
2023/08/29 01:26:26;;;;;;;0.20;0.20;;;;;;;23.82;100.00;100225.06;2092627;28;20715;-62
2023/08/29 01:27:28;;;;;;;0.43;0.33;;;;;;;23.75;100.00;100228.50;2093693;28;20195;-62
2023/08/29 01:28:30;;;;;;;0.83;0.40;;;;;;;23.62;100.00;100219.13;2091897;28;20264;-62
2023/08/29 01:29:33;;;;;;;0.30;0.30;;;;;;;23.56;100.00;100216.38;2093391;28;20191;-62
2023/08/29 01:30:34;;;;;;;0.67;0.40;;;;;;;23.45;100.00;100222.16;2091455;28;20177;-62
2023/08/29 01:31:35;;;;;;;0.27;0.27;;;;;;;23.39;100.00;100218.59;2093897;28;20183;-62
2023/08/29 01:32:36;;;;;;;0.30;0.27;;;;;;;23.39;100.00;100212.94;2093171;28;20687;-62
2023/08/29 01:33:38;;;;;;;0.30;0.20;;;;;;;23.38;100.00;100216.34;2092843;28;20196;-62
2023/08/29 01:34:42;;;;;;;0.50;0.30;;;;;;;23.32;100.00;100207.91;2094344;28;20648;-62
2023/08/29 01:35:45;;;;;;;0.47;0.33;;;;;;;23.26;100.00;100212.84;2093508;28;20188;-62
2023/08/29 01:36:47;;;;;;;0.33;0.30;;;;;;;23.16;100.00;100208.03;2093354;28;20198;-62
2023/08/29 01:37:48;;;;;;;1.57;1.10;;;;;;;22.98;100.00;100191.78;2092269;28;20188;-62
2023/08/29 01:38:48;;;;;;;0.73;0.60;;;;;;;22.97;100.00;100205.13;2095322;28;20194;-62
2023/08/29 01:39:50;;;;;;;0.73;0.43;;;;;;;22.48;100.00;100132.91;2093133;28;20582;-62
2023/08/29 01:40:50;;;;;;;0.33;0.30;;;;;;;22.83;100.00;100192.13;2092655;28;20313;-62
2023/08/29 01:41:51;;;;;;;0.30;0.30;;;;;;;22.74;100.00;100188.91;2092951;28;20244;-62
2023/08/29 01:42:51;;;;;;;1.10;0.27;;;;;;;22.79;100.00;100196.56;2092847;28;20196;-62
2023/08/29 01:43:52;;;;;;;0.20;0.20;;;;;;;22.73;100.00;100187.38;2091243;28;20224;-62
2023/08/29 01:44:52;;;;;;;1.70;0.40;;;;;;;21.99;100.00;100086.00;2094337;28;20207;-62
2023/08/29 01:45:53;;;;;;;0.40;0.40;;;;;;;22.68;100.00;100194.56;2095310;28;20200;-62
2023/08/29 01:46:53;;;;;;;0.20;0.20;;;;;;;22.71;100.00;100187.09;2093191;28;20249;-62
2023/08/29 01:47:54;;;;;;;0.50;0.50;;;;;;;22.71;100.00;100190.72;2094318;28;20201;-62
2023/08/29 01:48:57;;;;;;;0.30;0.20;;;;;;;22.69;100.00;100198.19;2093063;28;20194;-62
2023/08/29 01:50:03;;;;;;;0.20;0.20;;;;;;;22.65;100.00;100195.66;2091465;28;20188;-62
2023/08/29 01:51:03;;;;;;;0.43;0.30;;;;;;;22.63;100.00;100186.91;2092730;28;20171;-62
2023/08/29 01:52:04;;;;;;;0.37;0.33;;;;;;;22.63;100.00;100183.34;2092579;28;20180;-62
2023/08/29 01:53:05;;;;;;;0.43;0.33;;;;;;;22.65;100.00;100184.34;2089348;28;20698;-62
2023/08/29 01:54:05;;;;;;;0.20;0.20;;;;;;;22.65;100.00;100189.22;2092473;28;20185;-62
2023/08/29 01:55:06;;;;;;;0.50;0.33;;;;;;;22.60;100.00;100175.91;2100415;28;20311;-62
2023/08/29 01:56:08;;;;;;;0.30;0.30;;;;;;;22.57;100.00;100176.97;2093314;28;20200;-62
2023/08/29 01:57:11;;;;;;;0.33;0.30;;;;;;;22.59;100.00;100171.56;2092561;28;20196;-64
2023/08/29 01:58:13;;;;;;;0.70;0.20;;;;;;;22.57;100.00;100172.06;2091305;28;20692;-64
2023/08/29 01:59:14;;;;;;;0.50;0.50;;;;;;;22.13;100.00;100107.47;2090959;28;20729;-64
2023/08/29 02:00:16;;;;;;;0.50;0.50;;;;;;;22.56;100.00;100173.38;2093029;28;20627;-62
2023/08/29 02:01:16;;;;;;;0.30;0.20;;;;;;;22.60;100.00;100173.06;2091906;28;20260;-62
2023/08/29 02:02:18;;;;;;;0.70;0.50;;;;;;;22.55;100.00;100171.06;2094094;28;20661;-62
2023/08/29 02:03:21;;;;;;;0.40;0.30;;;;;;;22.62;100.00;100179.72;2091976;28;20708;-62
2023/08/29 02:04:22;;;;;;;1.13;0.40;;;;;;;22.61;100.00;100188.75;2092710;28;20202;-61
2023/08/29 02:05:22;;;;;;;0.30;0.30;;;;;;;22.65;100.00;100178.69;2092313;28;20223;-61
2023/08/29 02:06:23;;;;;;;0.20;0.20;;;;;;;22.58;100.00;100170.81;2091972;28;20631;-62
2023/08/29 02:07:23;;;;;;;0.63;0.37;;;;;;;22.69;100.00;100186.88;2091869;28;20207;-62
2023/08/29 02:08:24;;;;;;;0.67;0.53;;;;;;;22.70;100.00;100188.41;2092749;28;20329;-62
2023/08/29 02:09:24;;;;;;;0.23;0.23;;;;;;;22.72;100.00;100186.59;2092799;28;20192;-62
2023/08/29 02:10:25;;;;;;;0.50;0.30;;;;;;;22.74;100.00;100192.50;2092982;28;20740;-62
2023/08/29 02:11:25;;;;;;;0.20;0.20;;;;;;;22.74;100.00;100189.66;2094563;28;20270;-62
2023/08/29 02:12:25;;;;;;;0.30;0.20;;;;;;;22.74;100.00;100189.66;2093508;28;20245;-62
2023/08/29 02:13:26;;;;;;;0.53;0.37;;;;;;;22.76;100.00;100189.91;2092667;28;20204;-62
2023/08/29 02:14:26;;;;;;;0.40;0.30;;;;;;;22.79;100.00;100193.72;2092655;28;20198;-62
2023/08/29 02:15:26;;;;;;;0.60;0.60;;;;;;;22.36;100.00;100125.75;2092968;28;20325;-62
2023/08/29 02:16:27;;;;;;;1.07;0.97;;;;;;;22.83;100.00;100182.91;2093301;28;20184;-62
2023/08/29 02:17:27;;;;;;;0.33;0.27;;;;;;;22.84;100.00;100190.09;2092005;28;20176;-62
2023/08/29 02:18:28;;;;;;;0.20;0.20;;;;;;;22.75;100.00;100173.47;2091312;28;20177;-62
2023/08/29 02:19:28;;;;;;;0.33;0.33;;;;;;;22.86;100.00;100199.56;2093905;28;20615;-62
2023/08/29 02:20:29;;;;;;;0.20;0.20;;;;;;;22.86;100.00;100199.56;2095000;28;20688;-62
2023/08/29 02:21:29;;;;;;;0.20;0.20;;;;;;;22.81;100.00;100200.38;2092774;28;20211;-62
2023/08/29 02:22:30;;;;;;;0.40;0.40;;;;;;;22.76;100.00;100203.25;2092209;28;20193;-62
2023/08/29 02:23:31;;;;;;;0.70;0.47;;;;;;;22.67;100.00;100195.88;2092624;28;20196;-62
2023/08/29 02:24:31;;;;;;;0.27;0.27;;;;;;;22.40;100.00;100150.88;2091615;28;20200;-62
2023/08/29 02:25:32;;;;;;;0.33;0.30;;;;;;;22.71;100.00;100204.84;2091941;28;20598;-62
2023/08/29 02:26:32;;;;;;;1.00;0.60;;;;;;;22.61;100.00;100185.94;2092243;28;21913;-62
2023/08/29 02:27:32;;;;;;;0.53;0.50;;;;;;;22.67;100.00;100195.13;2092870;28;20758;-62
2023/08/29 02:28:36;;;;;;;0.60;0.60;;;;;;;22.67;100.00;100197.94;2092803;28;20184;-62
2023/08/29 02:29:36;;;;;;;0.83;0.57;;;;;;;22.67;100.00;100198.69;2094189;28;20592;-62
2023/08/29 02:30:37;;;;;;;0.93;0.50;;;;;;;22.69;100.00;100196.13;2093680;28;20325;-62
2023/08/29 02:31:37;;;;;;;0.77;0.30;;;;;;;22.68;100.00;100199.47;2091783;28;20192;-62
2023/08/29 02:32:39;;;;;;;0.30;0.30;;;;;;;22.73;100.00;100198.66;2090654;28;20650;-62
2023/08/29 02:33:40;;;;;;;0.73;0.67;;;;;;;22.73;100.00;100201.50;2090309;28;20203;-62
2023/08/29 02:34:40;;;;;;;0.50;0.40;;;;;;;22.72;100.00;100200.72;2094089;28;20644;-62
2023/08/29 02:35:41;;;;;;;1.13;0.70;;;;;;;22.74;100.00;100205.84;2094349;28;20657;-62
2023/08/29 02:36:41;;;;;;;0.20;0.20;;;;;;;22.73;100.00;100210.72;2093375;28;20199;-62
2023/08/29 02:37:42;;;;;;;0.80;0.70;;;;;;;22.75;100.00;100202.50;2093283;28;20217;-62
2023/08/29 02:38:42;;;;;;;0.37;0.37;;;;;;;22.75;100.00;100216.63;2092407;28;20188;-62
2023/08/29 02:39:43;;;;;;;1.33;0.40;;;;;;;22.75;100.00;100225.09;2090667;28;20214;-62
2023/08/29 02:40:43;;;;;;;0.43;0.40;;;;;;;22.72;100.00;100209.19;2090430;28;20227;-62
2023/08/29 02:41:44;;;;;;;0.33;0.27;;;;;;;22.69;100.00;100217.94;2093561;28;20232;-62
2023/08/29 02:42:44;;;;;;;0.60;0.30;;;;;;;22.66;100.00;100210.50;2091981;28;20195;-62
2023/08/29 02:43:44;;;;;;;0.33;0.33;;;;;;;22.64;100.00;100210.28;2091671;28;20180;-62
2023/08/29 02:44:45;;;;;;;0.30;0.30;;;;;;;22.60;100.00;100207.75;2090248;28;20185;-62
2023/08/29 02:45:45;;;;;;;0.20;0.20;;;;;;;22.56;100.00;100198.03;2090494;28;20237;-62
2023/08/29 02:46:45;;;;;;;0.30;0.23;;;;;;;22.51;100.00;100199.59;2092554;28;20188;-62
2023/08/29 02:47:46;;;;;;;0.20;0.20;;;;;;;22.52;100.00;100203.94;2093568;28;20184;-62
2023/08/29 02:48:46;;;;;;;0.40;0.40;;;;;;;21.89;100.00;100117.88;2093092;28;20270;-64
2023/08/29 02:49:47;;;;;;;0.77;0.60;;;;;;;22.51;100.00;100207.31;2092219;28;20274;-64
2023/08/29 02:50:50;;;;;;;0.20;0.20;;;;;;;21.86;100.00;100110.47;2093611;28;20179;-64
2023/08/29 02:51:50;;;;;;;0.47;0.33;;;;;;;22.07;100.00;100131.38;2091847;28;20241;-62
2023/08/29 02:52:51;;;;;;;1.53;0.20;;;;;;;22.58;100.00;100209.56;2089789;28;20184;-62
2023/08/29 02:53:51;;;;;;;0.30;0.30;;;;;;;22.60;100.00;100204.94;2091930;28;20176;-62
2023/08/29 02:54:51;;;;;;;0.20;0.20;;;;;;;22.60;100.00;100212.63;2092472;28;20180;-62
2023/08/29 02:55:52;;;;;;;0.53;0.53;;;;;;;22.59;100.00;100206.22;2093729;28;20179;-62
2023/08/29 02:56:53;;;;;;;0.30;0.30;;;;;;;22.55;100.00;100202.91;2091771;28;20272;-62
2023/08/29 02:57:53;;;;;;;0.30;0.30;;;;;;;22.52;100.00;100206.00;2092216;28;20188;-62
2023/08/29 02:58:54;;;;;;;0.60;0.60;;;;;;;22.36;100.00;100179.38;2092969;28;20191;-62
2023/08/29 02:59:55;;;;;;;0.57;0.40;;;;;;;22.48;100.00;100200.66;2093125;28;20180;-62
2023/08/29 03:00:57;;;;;;;0.27;0.23;;;;;;;22.46;100.00;100200.41;2091321;28;20590;-62
2023/08/29 03:01:59;;;;;;;0.40;0.37;;;;;;;21.78;100.00;100104.59;2090949;28;20186;-62
2023/08/29 03:02:59;;;;;;;0.23;0.23;;;;;;;22.46;100.00;100208.13;2092161;28;20184;-62
2023/08/29 03:04:00;;;;;;;0.27;0.27;;;;;;;22.44;100.00;100194.53;2091407;28;20176;-62
2023/08/29 03:05:00;;;;;;;0.33;0.30;;;;;;;22.41;100.00;100203.25;2091480;28;20715;-62
2023/08/29 03:06:01;;;;;;;0.20;0.20;;;;;;;22.37;100.00;100199.94;2090824;28;20271;-62
2023/08/29 03:07:03;;;;;;;0.10;0.10;;;;;;;22.31;100.00;100191.47;2093107;28;20210;-62
2023/08/29 03:08:04;;;;;;;0.40;0.40;;;;;;;22.28;100.00;100201.03;2091978;28;20180;-62
2023/08/29 03:09:06;;;;;;;0.40;0.40;;;;;;;21.87;100.00;100146.63;2093743;28;20194;-62
2023/08/29 03:10:07;;;;;;;0.70;0.57;;;;;;;21.60;100.00;100093.91;2091671;28;20176;-62
2023/08/29 03:11:08;;;;;;;0.40;0.20;;;;;;;22.26;100.00;100191.53;2090560;28;20263;-62
2023/08/29 03:12:08;;;;;;;0.57;0.50;;;;;;;22.24;100.00;100189.22;2092166;28;20180;-62
2023/08/29 03:13:08;;;;;;;2.50;0.33;;;;;;;22.23;100.00;100193.34;2089252;28;20608;-62
2023/08/29 03:14:09;;;;;;;0.30;0.30;;;;;;;22.21;100.00;100187.44;2092200;28;20699;-62
2023/08/29 03:15:10;;;;;;;0.50;0.47;;;;;;;22.19;100.00;100189.25;2092046;28;20719;-62
2023/08/29 03:16:12;;;;;;;0.40;0.40;;;;;;;22.16;100.00;100187.50;2092046;28;20758;-62
2023/08/29 03:17:12;;;;;;;0.90;0.50;;;;;;;22.15;100.00;100194.44;2093464;28;20187;-62
2023/08/29 03:18:13;;;;;;;0.70;0.40;;;;;;;22.12;100.00;100189.81;2093167;28;20185;-62
2023/08/29 03:19:14;;;;;;;1.17;0.50;;;;;;;22.16;100.00;100190.31;2089679;28;20260;-62
2023/08/29 03:20:15;;;;;;;1.00;0.47;;;;;;;22.19;100.00;100192.06;2092793;28;20258;-62
2023/08/29 03:21:16;;;;;;;0.23;0.23;;;;;;;22.21;100.00;100193.09;2091652;28;20184;-62
2023/08/29 03:22:16;;;;;;;1.13;0.77;;;;;;;22.22;100.00;100203.09;2091374;28;20188;-62
2023/08/29 03:23:17;;;;;;;0.30;0.30;;;;;;;22.26;100.00;100208.47;2092812;28;20185;-62
2023/08/29 03:24:17;;;;;;;0.57;0.43;;;;;;;22.27;100.00;100204.34;2091035;28;20189;-62
2023/08/29 03:25:20;;;;;;;0.70;0.50;;;;;;;22.30;100.00;100204.06;2094016;28;20203;-62
2023/08/29 03:26:20;;;;;;;0.40;0.27;;;;;;;22.32;100.00;100212.78;2091079;28;20192;-62
2023/08/29 03:27:20;;;;;;;0.67;0.47;;;;;;;22.34;100.00;100213.03;2092258;28;20183;-62
2023/08/29 03:28:21;;;;;;;0.80;0.47;;;;;;;22.34;100.00;100215.06;2091995;28;20571;-62
2023/08/29 03:29:22;;;;;;;0.33;0.30;;;;;;;22.34;100.00;100215.06;2092488;28;20180;-62
2023/08/29 03:30:25;;;;;;;0.93;0.30;;;;;;;22.33;100.00;100219.97;2091218;28;20180;-62
2023/08/29 03:31:25;;;;;;;0.40;0.40;;;;;;;22.28;100.00;100205.88;2090869;28;20204;-62
2023/08/29 03:32:26;;;;;;;0.30;0.30;;;;;;;22.36;100.00;100221.72;2093723;28;20661;-62
2023/08/29 03:33:26;;;;;;;0.70;0.37;;;;;;;22.35;100.00;100211.75;2092136;28;20581;-64
2023/08/29 03:34:26;;;;;;;0.43;0.30;;;;;;;22.32;100.00;100215.59;2090619;28;20692;-62
2023/08/29 03:35:27;;;;;;;0.40;0.40;;;;;;;22.25;100.00;100202.06;2093672;28;20683;-62
2023/08/29 03:36:27;;;;;;;0.57;0.47;;;;;;;22.34;100.00;100213.03;2094161;28;20313;-62
2023/08/29 03:37:28;;;;;;;0.40;0.20;;;;;;;22.33;100.00;100211.50;2092987;28;20263;-62
2023/08/29 03:38:29;;;;;;;0.30;0.30;;;;;;;22.27;100.00;100204.34;2093762;28;20266;-61
2023/08/29 03:39:29;;;;;;;0.50;0.47;;;;;;;22.31;100.00;100214.06;2092575;28;20851;-62
2023/08/29 03:40:30;;;;;;;0.30;0.30;;;;;;;22.25;100.00;100209.75;2091488;28;20195;-62
2023/08/29 03:41:30;;;;;;;0.50;0.50;;;;;;;22.21;100.00;100210.03;2091151;28;20229;-62
2023/08/29 03:42:31;;;;;;;0.40;0.37;;;;;;;22.21;100.00;100203.63;2091891;28;20196;-62
2023/08/29 03:43:33;;;;;;;0.47;0.40;;;;;;;22.16;100.00;100210.06;2090769;28;20172;-61
2023/08/29 03:44:33;;;;;;;0.37;0.30;;;;;;;22.06;100.00;100206.00;2091272;28;20267;-62
2023/08/29 03:45:34;;;;;;;0.33;0.30;;;;;;;21.88;100.00;100186.84;2093470;28;20188;-62
2023/08/29 03:46:34;;;;;;;0.47;0.30;;;;;;;21.49;100.00;100129.84;2090569;28;20215;-61
2023/08/29 03:47:36;;;;;;;0.53;0.47;;;;;;;21.78;100.00;100185.63;2091711;28;20217;-61
2023/08/29 03:48:37;;;;;;;0.30;0.30;;;;;;;21.75;100.00;100181.78;2092573;28;20275;-61
2023/08/29 03:49:37;;;;;;;0.73;0.60;;;;;;;21.71;100.00;100169.25;2091238;28;20190;-62
2023/08/29 03:50:37;;;;;;;0.80;0.67;;;;;;;21.77;100.00;100173.59;2092934;28;20188;-62
2023/08/29 03:51:38;;;;;;;0.50;0.40;;;;;;;21.81;100.00;100176.88;2091602;28;20286;-62
2023/08/29 03:52:38;;;;;;;0.50;0.30;;;;;;;21.82;100.00;100177.66;2093486;28;20262;-62
2023/08/29 03:53:39;;;;;;;1.10;0.70;;;;;;;21.83;100.00;100171.50;2094879;28;20180;-62
2023/08/29 03:54:39;;;;;;;0.70;0.40;;;;;;;21.85;100.00;100173.81;2091063;28;20263;-62
2023/08/29 03:55:39;;;;;;;0.37;0.37;;;;;;;21.88;100.00;100167.13;2091358;28;20191;-62
2023/08/29 03:56:40;;;;;;;0.20;0.20;;;;;;;21.18;100.00;100063.34;2090723;28;20191;-62
2023/08/29 03:57:40;;;;;;;0.57;0.37;;;;;;;21.93;100.00;100178.38;2091784;28;20187;-62
2023/08/29 03:58:41;;;;;;;1.03;0.40;;;;;;;21.30;100.00;100076.13;2092725;28;20653;-62
2023/08/29 03:59:41;;;;;;;0.50;0.40;;;;;;;21.97;100.00;100178.88;2091470;28;20563;-62
2023/08/29 04:00:45;;;;;;;0.47;0.33;;;;;;;21.99;100.00;100172.69;2090330;28;20183;-61
2023/08/29 04:01:45;;;;;;;0.47;0.40;;;;;;;22.00;100.00;100172.19;2093139;28;20192;-62
2023/08/29 04:02:45;;;;;;;0.50;0.30;;;;;;;22.03;100.00;100176.78;2091554;28;20184;-62
2023/08/29 04:03:46;;;;;;;0.33;0.33;;;;;;;22.01;100.00;100168.06;2092611;28;20677;-62
2023/08/29 04:04:50;;;;;;;0.70;0.67;;;;;;;22.11;100.00;100174.94;2093639;28;20684;-62
2023/08/29 04:05:51;;;;;;;0.33;0.20;;;;;;;21.75;100.00;100119.75;2091540;28;20572;-62
2023/08/29 04:06:53;;;;;;;0.60;0.30;;;;;;;21.76;100.00;100126.16;2090876;28;20208;-62
2023/08/29 04:07:53;;;;;;;0.30;0.30;;;;;;;21.97;100.00;100145.03;2092747;28;20656;-61
2023/08/29 04:08:54;;;;;;;0.70;0.37;;;;;;;21.58;100.00;100087.25;2093928;28;20892;-62
2023/08/29 04:09:55;;;;;;;0.43;0.43;;;;;;;22.16;100.00;100176.19;2092759;28;20183;-62
2023/08/29 04:10:56;;;;;;;0.27;0.27;;;;;;;22.16;100.00;100167.75;2092806;28;20617;-61
2023/08/29 04:11:57;;;;;;;0.20;0.20;;;;;;;22.21;100.00;100161.28;2090973;28;20180;-62
2023/08/29 04:12:57;;;;;;;0.07;0.07;;;;;;;22.25;100.00;100167.41;2094454;28;20207;-61
2023/08/29 04:13:58;;;;;;;0.20;0.20;;;;;;;22.33;100.00;100168.38;2090929;28;20180;-61
2023/08/29 04:14:58;;;;;;;0.27;0.27;;;;;;;22.39;100.00;100166.28;2092100;28;20231;-61
2023/08/29 04:16:03;;;;;;;0.20;0.20;;;;;;;22.44;100.00;100168.31;2091966;28;20245;-61
2023/08/29 04:17:04;;;;;;;0.40;0.23;;;;;;;22.26;100.00;100133.00;2090799;28;20271;-61
2023/08/29 04:18:05;;;;;;;0.57;0.50;;;;;;;22.51;100.00;100171.34;2092045;28;20676;-62
2023/08/29 04:19:05;;;;;;;0.10;0.10;;;;;;;22.58;100.00;100170.03;2091277;28;20206;-62
2023/08/29 04:20:08;;;;;;;0.20;0.10;;;;;;;22.19;100.00;100116.66;2092461;28;20673;-62
2023/08/29 04:21:08;;;;;;;0.20;0.20;;;;;;;22.74;100.00;100186.06;2089697;28;20692;-62
2023/08/29 04:22:09;;;;;;;0.20;0.20;;;;;;;22.73;100.00;100164.78;2092869;28;20579;-62
2023/08/29 04:23:10;;;;;;;0.20;0.20;;;;;;;22.83;100.00;100189.31;2091417;28;20626;-62
2023/08/29 04:24:10;;;;;;;0.20;0.20;;;;;;;22.85;100.00;100178.28;2091269;28;20187;-62
2023/08/29 04:25:11;;;;;;;0.50;0.50;;;;;;;22.95;100.00;100187.16;2089412;28;20208;-62
2023/08/29 04:26:11;;;;;;;0.23;0.20;;;;;;;23.01;100.00;100190.69;2091863;28;20263;-62
2023/08/29 04:27:12;;;;;;;0.10;0.10;;;;;;;23.07;100.00;100191.41;2091544;28;20681;-62
2023/08/29 04:28:19;;;;;;;0.30;0.30;;;;;;;23.09;100.00;100191.66;2090742;28;20206;-62
2023/08/29 04:29:19;;;;;;;0.10;0.10;;;;;;;23.13;100.00;100190.06;2089290;28;20253;-62
2023/08/29 04:30:20;;;;;;;0.30;0.30;;;;;;;23.14;100.00;100191.59;2089264;28;20172;-62
2023/08/29 04:31:21;;;;;;;0.10;0.10;;;;;;;23.18;100.00;100191.34;2091305;28;20172;-62
2023/08/29 04:32:22;;;;;;;0.10;0.10;;;;;;;23.20;100.00;100194.41;2088874;28;20196;-62
2023/08/29 04:33:22;;;;;;;0.20;0.20;;;;;;;23.22;100.00;100194.63;2090521;28;20202;-62
2023/08/29 04:34:23;;;;;;;0.37;0.37;;;;;;;23.20;100.00;100202.88;2092488;28;20278;-62
2023/08/29 04:35:23;;;;;;;0.10;0.10;;;;;;;23.13;100.00;100197.78;2091952;28;20184;-62
2023/08/29 04:36:25;;;;;;;0.40;0.40;;;;;;;23.14;100.00;100199.31;2091877;28;20203;-61
2023/08/29 04:37:25;;;;;;;0.10;0.10;;;;;;;22.30;100.00;100062.94;2092011;28;20184;-62
2023/08/29 04:38:26;;;;;;;0.30;0.30;;;;;;;23.12;100.00;100188.53;2091854;28;20183;-62
2023/08/29 04:39:27;;;;;;;0.10;0.10;;;;;;;23.10;100.00;100190.38;2088746;28;20222;-62
2023/08/29 04:40:28;;;;;;;0.30;0.30;;;;;;;22.80;100.00;100144.41;2090156;28;20190;-62
2023/08/29 04:41:28;;;;;;;0.33;0.33;;;;;;;23.11;100.00;100184.19;2092232;28;20187;-61
2023/08/29 04:42:28;;;;;;;0.00;0.00;;;;;;;23.14;100.00;100194.41;2091703;28;20192;-62
2023/08/29 04:43:29;;;;;;;0.40;0.27;;;;;;;23.11;100.00;100194.72;2090111;28;20191;-61